sensor_id;sensor_type;location;lat;lon;timestamp;P1;durP1;ratioP1;P2;durP2;ratioP2
7575;SDS011;3829;50.798;4.358;2022-07-06T00:00:31;7.27;;;2.30;;
7575;SDS011;3829;50.798;4.358;2022-07-06T00:02:57;4.73;;;2.67;;
7575;SDS011;3829;50.798;4.358;2022-07-06T00:05:22;6.00;;;2.00;;
7575;SDS011;3829;50.798;4.358;2022-07-06T00:07:48;6.83;;;2.40;;
7575;SDS011;3829;50.798;4.358;2022-07-06T00:10:13;7.20;;;2.33;;
7575;SDS011;3829;50.798;4.358;2022-07-06T00:12:39;5.23;;;2.40;;
7575;SDS011;3829;50.798;4.358;2022-07-06T00:15:05;6.77;;;2.27;;
7575;SDS011;3829;50.798;4.358;2022-07-06T00:17:31;4.90;;;2.60;;
7575;SDS011;3829;50.798;4.358;2022-07-06T00:19:56;5.90;;;2.30;;
7575;SDS011;3829;50.798;4.358;2022-07-06T00:22:22;4.50;;;2.47;;
7575;SDS011;3829;50.798;4.358;2022-07-06T00:24:47;3.33;;;2.00;;
7575;SDS011;3829;50.798;4.358;2022-07-06T00:27:13;3.13;;;2.10;;
7575;SDS011;3829;50.798;4.358;2022-07-06T00:29:38;2.97;;;1.97;;
7575;SDS011;3829;50.798;4.358;2022-07-06T00:32:09;5.97;;;2.27;;
7575;SDS011;3829;50.798;4.358;2022-07-06T00:34:35;3.93;;;2.80;;
7575;SDS011;3829;50.798;4.358;2022-07-06T00:37:01;7.87;;;2.70;;
7575;SDS011;3829;50.798;4.358;2022-07-06T00:39:27;7.33;;;2.70;;
7575;SDS011;3829;50.798;4.358;2022-07-06T00:41:54;5.57;;;2.60;;
7575;SDS011;3829;50.798;4.358;2022-07-06T00:44:21;4.10;;;2.50;;
7575;SDS011;3829;50.798;4.358;2022-07-06T00:46:46;3.73;;;2.40;;
7575;SDS011;3829;50.798;4.358;2022-07-06T00:49:12;6.37;;;2.70;;
7575;SDS011;3829;50.798;4.358;2022-07-06T00:51:57;3.23;;;2.40;;
7575;SDS011;3829;50.798;4.358;2022-07-06T00:54:24;4.23;;;2.60;;
7575;SDS011;3829;50.798;4.358;2022-07-06T00:56:51;6.07;;;2.43;;
7575;SDS011;3829;50.798;4.358;2022-07-06T00:59:16;5.07;;;2.00;;
7575;SDS011;3829;50.798;4.358;2022-07-06T01:01:42;4.97;;;2.23;;
7575;SDS011;3829;50.798;4.358;2022-07-06T01:04:08;7.00;;;2.20;;
7575;SDS011;3829;50.798;4.358;2022-07-06T01:06:33;5.27;;;2.30;;
7575;SDS011;3829;50.798;4.358;2022-07-06T01:08:59;4.27;;;2.57;;
7575;SDS011;3829;50.798;4.358;2022-07-06T01:11:25;4.50;;;2.43;;
7575;SDS011;3829;50.798;4.358;2022-07-06T01:13:51;4.93;;;2.57;;
7575;SDS011;3829;50.798;4.358;2022-07-06T01:16:17;3.57;;;2.10;;
7575;SDS011;3829;50.798;4.358;2022-07-06T01:18:43;4.83;;;2.50;;
7575;SDS011;3829;50.798;4.358;2022-07-06T01:21:10;5.27;;;2.40;;
7575;SDS011;3829;50.798;4.358;2022-07-06T01:23:44;4.17;;;2.40;;
7575;SDS011;3829;50.798;4.358;2022-07-06T01:26:18;6.27;;;3.23;;
7575;SDS011;3829;50.798;4.358;2022-07-06T01:28:45;3.80;;;2.60;;
7575;SDS011;3829;50.798;4.358;2022-07-06T01:31:15;5.83;;;2.70;;
7575;SDS011;3829;50.798;4.358;2022-07-06T01:33:41;3.77;;;2.77;;
7575;SDS011;3829;50.798;4.358;2022-07-06T01:36:07;5.37;;;2.80;;
7575;SDS011;3829;50.798;4.358;2022-07-06T01:38:42;7.37;;;2.80;;
7575;SDS011;3829;50.798;4.358;2022-07-06T01:41:15;5.10;;;2.37;;
7575;SDS011;3829;50.798;4.358;2022-07-06T01:43:41;5.43;;;2.80;;
7575;SDS011;3829;50.798;4.358;2022-07-06T01:46:07;6.63;;;2.57;;
7575;SDS011;3829;50.798;4.358;2022-07-06T01:48:33;3.80;;;2.50;;
7575;SDS011;3829;50.798;4.358;2022-07-06T01:50:59;3.17;;;2.60;;
7575;SDS011;3829;50.798;4.358;2022-07-06T01:53:24;3.07;;;2.70;;
7575;SDS011;3829;50.798;4.358;2022-07-06T01:55:50;5.40;;;2.93;;
7575;SDS011;3829;50.798;4.358;2022-07-06T01:58:15;5.17;;;3.30;;
7575;SDS011;3829;50.798;4.358;2022-07-06T02:00:41;6.33;;;2.80;;
7575;SDS011;3829;50.798;4.358;2022-07-06T02:03:07;9.83;;;3.03;;
7575;SDS011;3829;50.798;4.358;2022-07-06T02:05:32;7.30;;;3.60;;
7575;SDS011;3829;50.798;4.358;2022-07-06T02:07:58;4.77;;;3.10;;
7575;SDS011;3829;50.798;4.358;2022-07-06T02:10:23;7.63;;;4.10;;
7575;SDS011;3829;50.798;4.358;2022-07-06T02:12:50;5.07;;;3.70;;
7575;SDS011;3829;50.798;4.358;2022-07-06T02:15:16;5.50;;;3.23;;
7575;SDS011;3829;50.798;4.358;2022-07-06T02:17:41;4.53;;;3.10;;
7575;SDS011;3829;50.798;4.358;2022-07-06T02:20:07;8.43;;;3.60;;
7575;SDS011;3829;50.798;4.358;2022-07-06T02:22:33;6.07;;;3.13;;
7575;SDS011;3829;50.798;4.358;2022-07-06T02:24:59;9.27;;;3.67;;
7575;SDS011;3829;50.798;4.358;2022-07-06T02:27:24;5.43;;;2.87;;
7575;SDS011;3829;50.798;4.358;2022-07-06T02:29:50;5.40;;;3.23;;
7575;SDS011;3829;50.798;4.358;2022-07-06T02:32:16;6.10;;;3.20;;
7575;SDS011;3829;50.798;4.358;2022-07-06T02:34:42;6.23;;;3.00;;
7575;SDS011;3829;50.798;4.358;2022-07-06T02:37:07;6.77;;;3.10;;
7575;SDS011;3829;50.798;4.358;2022-07-06T02:39:33;8.37;;;3.43;;
7575;SDS011;3829;50.798;4.358;2022-07-06T02:41:59;5.43;;;3.17;;
7575;SDS011;3829;50.798;4.358;2022-07-06T02:44:24;5.47;;;2.93;;
7575;SDS011;3829;50.798;4.358;2022-07-06T02:46:50;7.70;;;3.40;;
7575;SDS011;3829;50.798;4.358;2022-07-06T02:49:15;5.67;;;2.90;;
7575;SDS011;3829;50.798;4.358;2022-07-06T02:51:41;5.90;;;3.40;;
7575;SDS011;3829;50.798;4.358;2022-07-06T02:54:07;5.20;;;3.40;;
7575;SDS011;3829;50.798;4.358;2022-07-06T02:56:32;8.03;;;3.40;;
7575;SDS011;3829;50.798;4.358;2022-07-06T02:58:58;5.17;;;3.20;;
7575;SDS011;3829;50.798;4.358;2022-07-06T03:01:23;5.27;;;3.40;;
7575;SDS011;3829;50.798;4.358;2022-07-06T03:03:49;7.17;;;3.33;;
7575;SDS011;3829;50.798;4.358;2022-07-06T03:06:15;6.97;;;3.17;;
7575;SDS011;3829;50.798;4.358;2022-07-06T03:08:40;9.20;;;3.73;;
7575;SDS011;3829;50.798;4.358;2022-07-06T03:11:06;5.30;;;3.67;;
7575;SDS011;3829;50.798;4.358;2022-07-06T03:13:31;5.80;;;4.20;;
7575;SDS011;3829;50.798;4.358;2022-07-06T03:15:57;6.03;;;2.90;;
7575;SDS011;3829;50.798;4.358;2022-07-06T03:18:23;7.23;;;3.17;;
7575;SDS011;3829;50.798;4.358;2022-07-06T03:20:48;4.47;;;3.03;;
7575;SDS011;3829;50.798;4.358;2022-07-06T03:23:14;5.57;;;3.10;;
7575;SDS011;3829;50.798;4.358;2022-07-06T03:25:40;4.93;;;3.07;;
7575;SDS011;3829;50.798;4.358;2022-07-06T03:28:05;4.13;;;2.93;;
7575;SDS011;3829;50.798;4.358;2022-07-06T03:30:31;5.73;;;3.20;;
7575;SDS011;3829;50.798;4.358;2022-07-06T03:32:56;5.63;;;3.27;;
7575;SDS011;3829;50.798;4.358;2022-07-06T03:35:22;6.20;;;3.23;;
7575;SDS011;3829;50.798;4.358;2022-07-06T03:37:47;4.20;;;2.87;;
7575;SDS011;3829;50.798;4.358;2022-07-06T03:40:13;6.47;;;3.20;;
7575;SDS011;3829;50.798;4.358;2022-07-06T03:42:39;5.73;;;3.07;;
7575;SDS011;3829;50.798;4.358;2022-07-06T03:45:05;4.87;;;3.30;;
7575;SDS011;3829;50.798;4.358;2022-07-06T03:47:32;3.40;;;3.07;;
7575;SDS011;3829;50.798;4.358;2022-07-06T03:49:57;6.50;;;3.30;;
7575;SDS011;3829;50.798;4.358;2022-07-06T03:52:23;6.37;;;3.40;;
7575;SDS011;3829;50.798;4.358;2022-07-06T03:54:48;7.33;;;3.37;;
7575;SDS011;3829;50.798;4.358;2022-07-06T03:57:14;7.93;;;3.20;;
7575;SDS011;3829;50.798;4.358;2022-07-06T03:59:40;7.77;;;3.50;;
7575;SDS011;3829;50.798;4.358;2022-07-06T04:02:06;7.57;;;4.00;;
7575;SDS011;3829;50.798;4.358;2022-07-06T04:04:33;6.10;;;3.60;;
7575;SDS011;3829;50.798;4.358;2022-07-06T04:06:59;7.10;;;3.80;;
7575;SDS011;3829;50.798;4.358;2022-07-06T04:09:24;4.90;;;3.60;;
7575;SDS011;3829;50.798;4.358;2022-07-06T04:11:50;6.70;;;3.57;;
7575;SDS011;3829;50.798;4.358;2022-07-06T04:14:16;4.37;;;3.50;;
7575;SDS011;3829;50.798;4.358;2022-07-06T04:16:42;7.17;;;3.53;;
7575;SDS011;3829;50.798;4.358;2022-07-06T04:19:07;7.70;;;3.63;;
7575;SDS011;3829;50.798;4.358;2022-07-06T04:21:33;7.47;;;3.60;;
7575;SDS011;3829;50.798;4.358;2022-07-06T04:23:58;7.83;;;3.00;;
7575;SDS011;3829;50.798;4.358;2022-07-06T04:26:24;7.47;;;3.13;;
7575;SDS011;3829;50.798;4.358;2022-07-06T04:28:49;9.83;;;3.23;;
7575;SDS011;3829;50.798;4.358;2022-07-06T04:31:15;3.47;;;3.10;;
7575;SDS011;3829;50.798;4.358;2022-07-06T04:33:41;7.43;;;3.83;;
7575;SDS011;3829;50.798;4.358;2022-07-06T04:36:10;7.33;;;3.30;;
7575;SDS011;3829;50.798;4.358;2022-07-06T04:38:35;7.37;;;3.20;;
7575;SDS011;3829;50.798;4.358;2022-07-06T04:41:02;5.60;;;3.17;;
7575;SDS011;3829;50.798;4.358;2022-07-06T04:43:27;5.70;;;3.00;;
7575;SDS011;3829;50.798;4.358;2022-07-06T04:45:53;6.07;;;3.13;;
7575;SDS011;3829;50.798;4.358;2022-07-06T04:48:19;6.27;;;2.97;;
7575;SDS011;3829;50.798;4.358;2022-07-06T04:50:45;4.47;;;3.20;;
7575;SDS011;3829;50.798;4.358;2022-07-06T04:53:10;4.00;;;2.90;;
7575;SDS011;3829;50.798;4.358;2022-07-06T04:55:36;10.87;;;3.87;;
7575;SDS011;3829;50.798;4.358;2022-07-06T04:58:01;7.67;;;3.30;;
7575;SDS011;3829;50.798;4.358;2022-07-06T05:00:27;6.30;;;3.70;;
7575;SDS011;3829;50.798;4.358;2022-07-06T05:02:52;10.43;;;3.80;;
7575;SDS011;3829;50.798;4.358;2022-07-06T05:05:18;5.07;;;3.20;;
7575;SDS011;3829;50.798;4.358;2022-07-06T05:07:44;6.83;;;3.60;;
7575;SDS011;3829;50.798;4.358;2022-07-06T05:10:10;5.83;;;3.70;;
7575;SDS011;3829;50.798;4.358;2022-07-06T05:12:37;6.67;;;3.30;;
7575;SDS011;3829;50.798;4.358;2022-07-06T05:15:03;5.77;;;3.50;;
7575;SDS011;3829;50.798;4.358;2022-07-06T05:17:29;6.17;;;3.80;;
7575;SDS011;3829;50.798;4.358;2022-07-06T05:19:55;7.37;;;4.00;;
7575;SDS011;3829;50.798;4.358;2022-07-06T05:22:21;4.40;;;3.30;;
7575;SDS011;3829;50.798;4.358;2022-07-06T05:24:47;9.50;;;3.80;;
7575;SDS011;3829;50.798;4.358;2022-07-06T05:27:12;9.73;;;3.97;;
7575;SDS011;3829;50.798;4.358;2022-07-06T05:29:38;9.13;;;4.57;;
7575;SDS011;3829;50.798;4.358;2022-07-06T05:32:03;7.40;;;3.57;;
7575;SDS011;3829;50.798;4.358;2022-07-06T05:34:29;7.57;;;4.40;;
7575;SDS011;3829;50.798;4.358;2022-07-06T05:36:55;8.03;;;4.73;;
7575;SDS011;3829;50.798;4.358;2022-07-06T05:39:20;10.10;;;4.47;;
7575;SDS011;3829;50.798;4.358;2022-07-06T05:41:47;11.30;;;5.47;;
7575;SDS011;3829;50.798;4.358;2022-07-06T05:44:14;10.37;;;4.80;;
7575;SDS011;3829;50.798;4.358;2022-07-06T05:46:40;7.73;;;4.47;;
7575;SDS011;3829;50.798;4.358;2022-07-06T05:49:06;10.13;;;3.77;;
7575;SDS011;3829;50.798;4.358;2022-07-06T05:51:50;9.87;;;4.40;;
7575;SDS011;3829;50.798;4.358;2022-07-06T05:54:15;11.43;;;5.17;;
7575;SDS011;3829;50.798;4.358;2022-07-06T05:56:41;8.70;;;4.70;;
7575;SDS011;3829;50.798;4.358;2022-07-06T05:59:07;5.97;;;3.63;;
7575;SDS011;3829;50.798;4.358;2022-07-06T06:01:32;7.90;;;4.47;;
7575;SDS011;3829;50.798;4.358;2022-07-06T06:03:58;10.87;;;4.50;;
7575;SDS011;3829;50.798;4.358;2022-07-06T06:06:24;7.13;;;3.83;;
7575;SDS011;3829;50.798;4.358;2022-07-06T06:08:56;5.73;;;3.73;;
7575;SDS011;3829;50.798;4.358;2022-07-06T06:11:21;9.03;;;4.37;;
7575;SDS011;3829;50.798;4.358;2022-07-06T06:13:47;8.57;;;4.27;;
7575;SDS011;3829;50.798;4.358;2022-07-06T06:16:13;8.67;;;4.13;;
7575;SDS011;3829;50.798;4.358;2022-07-06T06:18:40;8.87;;;3.77;;
7575;SDS011;3829;50.798;4.358;2022-07-06T06:21:06;7.60;;;3.90;;
7575;SDS011;3829;50.798;4.358;2022-07-06T06:23:32;10.00;;;4.00;;
7575;SDS011;3829;50.798;4.358;2022-07-06T06:25:57;8.77;;;3.57;;
7575;SDS011;3829;50.798;4.358;2022-07-06T06:28:23;7.77;;;3.23;;
7575;SDS011;3829;50.798;4.358;2022-07-06T06:30:49;6.77;;;2.97;;
7575;SDS011;3829;50.798;4.358;2022-07-06T06:33:16;4.63;;;3.10;;
7575;SDS011;3829;50.798;4.358;2022-07-06T06:35:44;8.57;;;4.10;;
7575;SDS011;3829;50.798;4.358;2022-07-06T06:38:11;8.00;;;3.67;;
7575;SDS011;3829;50.798;4.358;2022-07-06T06:40:37;5.33;;;3.27;;
7575;SDS011;3829;50.798;4.358;2022-07-06T06:43:03;8.07;;;4.30;;
7575;SDS011;3829;50.798;4.358;2022-07-06T06:45:29;9.40;;;4.70;;
7575;SDS011;3829;50.798;4.358;2022-07-06T06:47:54;5.73;;;3.63;;
7575;SDS011;3829;50.798;4.358;2022-07-06T06:50:20;5.00;;;3.50;;
7575;SDS011;3829;50.798;4.358;2022-07-06T06:52:47;6.80;;;3.63;;
7575;SDS011;3829;50.798;4.358;2022-07-06T06:55:13;6.00;;;3.40;;
7575;SDS011;3829;50.798;4.358;2022-07-06T06:57:38;10.37;;;3.90;;
7575;SDS011;3829;50.798;4.358;2022-07-06T07:00:04;6.63;;;3.30;;
7575;SDS011;3829;50.798;4.358;2022-07-06T07:02:30;9.83;;;3.43;;
7575;SDS011;3829;50.798;4.358;2022-07-06T07:04:56;13.40;;;5.37;;
7575;SDS011;3829;50.798;4.358;2022-07-06T07:07:21;12.67;;;5.60;;
7575;SDS011;3829;50.798;4.358;2022-07-06T07:09:47;10.50;;;5.30;;
7575;SDS011;3829;50.798;4.358;2022-07-06T07:12:13;16.40;;;5.80;;
7575;SDS011;3829;50.798;4.358;2022-07-06T07:14:40;15.67;;;5.47;;
7575;SDS011;3829;50.798;4.358;2022-07-06T07:17:06;15.97;;;5.53;;
7575;SDS011;3829;50.798;4.358;2022-07-06T07:19:31;12.90;;;5.13;;
7575;SDS011;3829;50.798;4.358;2022-07-06T07:21:57;15.90;;;4.80;;
7575;SDS011;3829;50.798;4.358;2022-07-06T07:24:22;8.43;;;3.27;;
7575;SDS011;3829;50.798;4.358;2022-07-06T07:26:48;9.33;;;3.13;;
7575;SDS011;3829;50.798;4.358;2022-07-06T07:29:14;6.97;;;3.40;;
7575;SDS011;3829;50.798;4.358;2022-07-06T07:31:39;12.73;;;3.57;;
7575;SDS011;3829;50.798;4.358;2022-07-06T07:34:05;15.97;;;5.00;;
7575;SDS011;3829;50.798;4.358;2022-07-06T07:36:31;8.40;;;3.80;;
7575;SDS011;3829;50.798;4.358;2022-07-06T07:38:56;8.53;;;3.40;;
7575;SDS011;3829;50.798;4.358;2022-07-06T07:41:22;11.80;;;4.03;;
7575;SDS011;3829;50.798;4.358;2022-07-06T07:43:48;8.20;;;3.77;;
7575;SDS011;3829;50.798;4.358;2022-07-06T07:46:13;11.20;;;3.87;;
7575;SDS011;3829;50.798;4.358;2022-07-06T07:48:39;9.37;;;4.63;;
7575;SDS011;3829;50.798;4.358;2022-07-06T07:51:05;14.60;;;4.20;;
7575;SDS011;3829;50.798;4.358;2022-07-06T07:53:30;10.80;;;4.60;;
7575;SDS011;3829;50.798;4.358;2022-07-06T07:55:56;12.90;;;4.50;;
7575;SDS011;3829;50.798;4.358;2022-07-06T07:58:21;11.47;;;4.13;;
7575;SDS011;3829;50.798;4.358;2022-07-06T08:00:47;10.43;;;4.63;;
7575;SDS011;3829;50.798;4.358;2022-07-06T08:03:13;7.57;;;3.20;;
7575;SDS011;3829;50.798;4.358;2022-07-06T08:05:38;10.57;;;4.07;;
7575;SDS011;3829;50.798;4.358;2022-07-06T08:08:04;14.20;;;3.67;;
7575;SDS011;3829;50.798;4.358;2022-07-06T08:10:30;6.93;;;2.77;;
7575;SDS011;3829;50.798;4.358;2022-07-06T08:12:55;3.47;;;1.80;;
7575;SDS011;3829;50.798;4.358;2022-07-06T08:15:21;4.43;;;1.90;;
7575;SDS011;3829;50.798;4.358;2022-07-06T08:17:47;8.23;;;2.50;;
7575;SDS011;3829;50.798;4.358;2022-07-06T08:20:13;6.40;;;2.70;;
7575;SDS011;3829;50.798;4.358;2022-07-06T08:22:39;5.10;;;2.97;;
7575;SDS011;3829;50.798;4.358;2022-07-06T08:25:06;10.30;;;2.50;;
7575;SDS011;3829;50.798;4.358;2022-07-06T08:27:32;7.43;;;2.63;;
7575;SDS011;3829;50.798;4.358;2022-07-06T08:29:58;9.07;;;3.00;;
7575;SDS011;3829;50.798;4.358;2022-07-06T08:32:25;7.67;;;3.70;;
7575;SDS011;3829;50.798;4.358;2022-07-06T08:34:51;7.87;;;3.20;;
7575;SDS011;3829;50.798;4.358;2022-07-06T08:37:17;7.83;;;3.70;;
7575;SDS011;3829;50.798;4.358;2022-07-06T08:39:44;9.90;;;3.23;;
7575;SDS011;3829;50.798;4.358;2022-07-06T08:42:10;6.63;;;2.73;;
7575;SDS011;3829;50.798;4.358;2022-07-06T08:44:37;7.00;;;3.53;;
7575;SDS011;3829;50.798;4.358;2022-07-06T08:47:06;7.70;;;3.60;;
7575;SDS011;3829;50.798;4.358;2022-07-06T08:49:32;10.53;;;4.47;;
7575;SDS011;3829;50.798;4.358;2022-07-06T08:51:59;7.47;;;3.50;;
7575;SDS011;3829;50.798;4.358;2022-07-06T08:54:27;7.10;;;3.77;;
7575;SDS011;3829;50.798;4.358;2022-07-06T08:56:53;8.87;;;3.37;;
7575;SDS011;3829;50.798;4.358;2022-07-06T08:59:19;8.07;;;3.50;;
7575;SDS011;3829;50.798;4.358;2022-07-06T09:01:45;7.80;;;3.13;;
7575;SDS011;3829;50.798;4.358;2022-07-06T09:04:12;7.87;;;3.17;;
7575;SDS011;3829;50.798;4.358;2022-07-06T09:06:42;9.80;;;4.40;;
7575;SDS011;3829;50.798;4.358;2022-07-06T09:09:10;5.73;;;2.73;;
7575;SDS011;3829;50.798;4.358;2022-07-06T09:11:46;7.27;;;3.63;;
7575;SDS011;3829;50.798;4.358;2022-07-06T09:14:16;5.03;;;2.77;;
7575;SDS011;3829;50.798;4.358;2022-07-06T09:16:43;8.67;;;4.10;;
7575;SDS011;3829;50.798;4.358;2022-07-06T09:19:10;7.07;;;3.63;;
7575;SDS011;3829;50.798;4.358;2022-07-06T09:21:37;6.90;;;3.43;;
7575;SDS011;3829;50.798;4.358;2022-07-06T09:24:11;7.57;;;3.27;;
7575;SDS011;3829;50.798;4.358;2022-07-06T09:26:38;7.30;;;3.03;;
7575;SDS011;3829;50.798;4.358;2022-07-06T09:29:04;8.23;;;2.83;;
7575;SDS011;3829;50.798;4.358;2022-07-06T09:31:30;9.00;;;3.00;;
7575;SDS011;3829;50.798;4.358;2022-07-06T09:34:03;6.80;;;3.03;;
7575;SDS011;3829;50.798;4.358;2022-07-06T09:39:16;7.27;;;2.80;;
7575;SDS011;3829;50.798;4.358;2022-07-06T09:41:45;9.87;;;3.20;;
7575;SDS011;3829;50.798;4.358;2022-07-06T09:44:12;6.43;;;2.93;;
7575;SDS011;3829;50.798;4.358;2022-07-06T09:46:41;6.10;;;3.07;;
7575;SDS011;3829;50.798;4.358;2022-07-06T09:49:07;6.93;;;2.27;;
7575;SDS011;3829;50.798;4.358;2022-07-06T09:51:35;5.00;;;2.20;;
7575;SDS011;3829;50.798;4.358;2022-07-06T09:54:06;4.77;;;2.37;;
7575;SDS011;3829;50.798;4.358;2022-07-06T09:56:39;5.33;;;2.50;;
7575;SDS011;3829;50.798;4.358;2022-07-06T09:59:09;5.70;;;2.60;;
7575;SDS011;3829;50.798;4.358;2022-07-06T10:01:39;5.50;;;2.67;;
7575;SDS011;3829;50.798;4.358;2022-07-06T10:04:06;5.23;;;3.03;;
7575;SDS011;3829;50.798;4.358;2022-07-06T10:06:32;6.27;;;2.70;;
7575;SDS011;3829;50.798;4.358;2022-07-06T10:08:59;4.63;;;2.50;;
7575;SDS011;3829;50.798;4.358;2022-07-06T10:11:25;8.00;;;3.13;;
7575;SDS011;3829;50.798;4.358;2022-07-06T10:13:54;8.47;;;2.90;;
7575;SDS011;3829;50.798;4.358;2022-07-06T10:16:22;6.20;;;2.73;;
7575;SDS011;3829;50.798;4.358;2022-07-06T10:18:49;9.53;;;3.10;;
7575;SDS011;3829;50.798;4.358;2022-07-06T10:21:18;9.27;;;3.27;;
7575;SDS011;3829;50.798;4.358;2022-07-06T10:23:45;7.33;;;2.90;;
7575;SDS011;3829;50.798;4.358;2022-07-06T10:26:11;8.20;;;3.13;;
7575;SDS011;3829;50.798;4.358;2022-07-06T10:28:37;7.90;;;3.57;;
7575;SDS011;3829;50.798;4.358;2022-07-06T10:31:04;11.80;;;3.33;;
7575;SDS011;3829;50.798;4.358;2022-07-06T10:33:31;8.30;;;2.37;;
7575;SDS011;3829;50.798;4.358;2022-07-06T10:35:58;4.77;;;2.70;;
7575;SDS011;3829;50.798;4.358;2022-07-06T10:38:30;7.33;;;2.67;;
7575;SDS011;3829;50.798;4.358;2022-07-06T10:41:04;4.80;;;2.43;;
7575;SDS011;3829;50.798;4.358;2022-07-06T10:46:08;6.93;;;3.17;;
7575;SDS011;3829;50.798;4.358;2022-07-06T10:48:37;6.27;;;2.80;;
7575;SDS011;3829;50.798;4.358;2022-07-06T10:51:05;7.23;;;2.70;;
7575;SDS011;3829;50.798;4.358;2022-07-06T10:53:35;9.27;;;2.93;;
7575;SDS011;3829;50.798;4.358;2022-07-06T10:56:04;9.37;;;3.37;;
7575;SDS011;3829;50.798;4.358;2022-07-06T10:58:38;9.70;;;2.70;;
7575;SDS011;3829;50.798;4.358;2022-07-06T11:01:16;4.57;;;2.17;;
7575;SDS011;3829;50.798;4.358;2022-07-06T11:06:12;6.67;;;2.40;;
7575;SDS011;3829;50.798;4.358;2022-07-06T11:08:47;7.60;;;2.00;;
7575;SDS011;3829;50.798;4.358;2022-07-06T11:11:23;4.40;;;1.93;;
7575;SDS011;3829;50.798;4.358;2022-07-06T11:13:59;5.13;;;2.37;;
7575;SDS011;3829;50.798;4.358;2022-07-06T11:16:27;6.13;;;2.50;;
7575;SDS011;3829;50.798;4.358;2022-07-06T11:19:05;8.33;;;2.30;;
7575;SDS011;3829;50.798;4.358;2022-07-06T11:21:32;6.53;;;1.70;;
7575;SDS011;3829;50.798;4.358;2022-07-06T11:24:00;5.37;;;1.70;;
7575;SDS011;3829;50.798;4.358;2022-07-06T11:26:26;10.80;;;2.30;;
7575;SDS011;3829;50.798;4.358;2022-07-06T11:28:52;6.07;;;1.80;;
7575;SDS011;3829;50.798;4.358;2022-07-06T11:31:18;4.90;;;1.63;;
7575;SDS011;3829;50.798;4.358;2022-07-06T11:33:45;6.70;;;2.27;;
7575;SDS011;3829;50.798;4.358;2022-07-06T11:36:18;3.03;;;1.90;;
7575;SDS011;3829;50.798;4.358;2022-07-06T11:38:46;4.40;;;1.80;;
7575;SDS011;3829;50.798;4.358;2022-07-06T11:41:13;5.17;;;1.60;;
7575;SDS011;3829;50.798;4.358;2022-07-06T11:43:43;6.73;;;2.03;;
7575;SDS011;3829;50.798;4.358;2022-07-06T11:48:55;6.73;;;2.20;;
7575;SDS011;3829;50.798;4.358;2022-07-06T11:51:22;5.17;;;2.07;;
7575;SDS011;3829;50.798;4.358;2022-07-06T11:53:51;6.57;;;1.80;;
7575;SDS011;3829;50.798;4.358;2022-07-06T11:56:18;6.37;;;2.57;;
7575;SDS011;3829;50.798;4.358;2022-07-06T11:58:46;6.80;;;2.07;;
7575;SDS011;3829;50.798;4.358;2022-07-06T12:01:14;4.60;;;1.90;;
7575;SDS011;3829;50.798;4.358;2022-07-06T12:03:40;5.60;;;2.07;;
7575;SDS011;3829;50.798;4.358;2022-07-06T12:06:15;6.50;;;2.00;;
7575;SDS011;3829;50.798;4.358;2022-07-06T12:08:48;4.47;;;1.80;;
7575;SDS011;3829;50.798;4.358;2022-07-06T12:11:16;4.43;;;2.10;;
7575;SDS011;3829;50.798;4.358;2022-07-06T12:13:56;5.87;;;2.13;;
7575;SDS011;3829;50.798;4.358;2022-07-06T12:18:56;5.73;;;1.97;;
7575;SDS011;3829;50.798;4.358;2022-07-06T12:21:22;4.83;;;1.80;;
7575;SDS011;3829;50.798;4.358;2022-07-06T12:23:49;4.07;;;1.90;;
7575;SDS011;3829;50.798;4.358;2022-07-06T12:26:18;5.57;;;2.30;;
7575;SDS011;3829;50.798;4.358;2022-07-06T12:28:45;5.30;;;2.03;;
7575;SDS011;3829;50.798;4.358;2022-07-06T12:31:30;5.97;;;1.60;;
7575;SDS011;3829;50.798;4.358;2022-07-06T12:33:56;7.70;;;2.10;;
7575;SDS011;3829;50.798;4.358;2022-07-06T12:36:22;3.20;;;1.67;;
7575;SDS011;3829;50.798;4.358;2022-07-06T12:38:48;5.83;;;1.80;;
7575;SDS011;3829;50.798;4.358;2022-07-06T12:44:07;8.27;;;1.80;;
7575;SDS011;3829;50.798;4.358;2022-07-06T12:46:35;4.37;;;2.37;;
7575;SDS011;3829;50.798;4.358;2022-07-06T12:49:03;5.43;;;2.00;;
7575;SDS011;3829;50.798;4.358;2022-07-06T12:54:16;4.30;;;1.83;;
7575;SDS011;3829;50.798;4.358;2022-07-06T12:59:29;3.27;;;2.20;;
7575;SDS011;3829;50.798;4.358;2022-07-06T13:01:55;11.43;;;1.97;;
7575;SDS011;3829;50.798;4.358;2022-07-06T13:04:22;4.93;;;1.77;;
7575;SDS011;3829;50.798;4.358;2022-07-06T13:06:52;6.23;;;3.00;;
7575;SDS011;3829;50.798;4.358;2022-07-06T13:09:18;4.93;;;2.63;;
7575;SDS011;3829;50.798;4.358;2022-07-06T13:11:45;3.47;;;1.73;;
7575;SDS011;3829;50.798;4.358;2022-07-06T13:14:11;5.20;;;2.20;;
7575;SDS011;3829;50.798;4.358;2022-07-06T13:16:37;4.77;;;1.80;;
7575;SDS011;3829;50.798;4.358;2022-07-06T13:19:03;7.53;;;2.10;;
7575;SDS011;3829;50.798;4.358;2022-07-06T13:21:29;4.43;;;2.10;;
7575;SDS011;3829;50.798;4.358;2022-07-06T13:23:54;3.80;;;2.00;;
7575;SDS011;3829;50.798;4.358;2022-07-06T13:26:20;3.23;;;1.87;;
7575;SDS011;3829;50.798;4.358;2022-07-06T13:28:46;4.70;;;2.07;;
7575;SDS011;3829;50.798;4.358;2022-07-06T13:31:11;7.73;;;2.07;;
7575;SDS011;3829;50.798;4.358;2022-07-06T13:33:37;3.47;;;2.43;;
7575;SDS011;3829;50.798;4.358;2022-07-06T13:36:03;4.93;;;1.93;;
7575;SDS011;3829;50.798;4.358;2022-07-06T13:38:29;4.67;;;1.87;;
7575;SDS011;3829;50.798;4.358;2022-07-06T13:40:54;4.03;;;2.03;;
7575;SDS011;3829;50.798;4.358;2022-07-06T13:43:20;3.57;;;1.60;;
7575;SDS011;3829;50.798;4.358;2022-07-06T13:45:46;5.87;;;1.90;;
7575;SDS011;3829;50.798;4.358;2022-07-06T13:48:12;4.17;;;1.93;;
7575;SDS011;3829;50.798;4.358;2022-07-06T13:50:38;3.23;;;1.57;;
7575;SDS011;3829;50.798;4.358;2022-07-06T13:53:04;6.27;;;1.87;;
7575;SDS011;3829;50.798;4.358;2022-07-06T13:55:30;5.47;;;2.20;;
7575;SDS011;3829;50.798;4.358;2022-07-06T13:57:56;2.37;;;1.73;;
7575;SDS011;3829;50.798;4.358;2022-07-06T14:00:22;6.57;;;2.07;;
7575;SDS011;3829;50.798;4.358;2022-07-06T14:02:48;3.33;;;1.77;;
7575;SDS011;3829;50.798;4.358;2022-07-06T14:05:15;6.43;;;1.80;;
7575;SDS011;3829;50.798;4.358;2022-07-06T14:07:40;4.17;;;2.07;;
7575;SDS011;3829;50.798;4.358;2022-07-06T14:10:06;3.87;;;1.80;;
7575;SDS011;3829;50.798;4.358;2022-07-06T14:12:32;3.97;;;1.80;;
7575;SDS011;3829;50.798;4.358;2022-07-06T14:14:57;4.23;;;1.80;;
7575;SDS011;3829;50.798;4.358;2022-07-06T14:17:24;4.97;;;2.07;;
7575;SDS011;3829;50.798;4.358;2022-07-06T14:19:51;4.77;;;1.63;;
7575;SDS011;3829;50.798;4.358;2022-07-06T14:22:17;3.20;;;1.60;;
7575;SDS011;3829;50.798;4.358;2022-07-06T14:24:42;3.37;;;1.57;;
7575;SDS011;3829;50.798;4.358;2022-07-06T14:27:08;6.63;;;1.70;;
7575;SDS011;3829;50.798;4.358;2022-07-06T14:29:34;5.17;;;1.60;;
7575;SDS011;3829;50.798;4.358;2022-07-06T14:31:59;6.03;;;1.90;;
7575;SDS011;3829;50.798;4.358;2022-07-06T14:34:25;2.50;;;1.23;;
7575;SDS011;3829;50.798;4.358;2022-07-06T14:36:51;3.67;;;1.20;;
7575;SDS011;3829;50.798;4.358;2022-07-06T14:39:17;3.07;;;1.60;;
7575;SDS011;3829;50.798;4.358;2022-07-06T14:41:43;3.23;;;1.50;;
7575;SDS011;3829;50.798;4.358;2022-07-06T14:44:08;4.67;;;1.50;;
7575;SDS011;3829;50.798;4.358;2022-07-06T14:46:34;3.90;;;1.70;;
7575;SDS011;3829;50.798;4.358;2022-07-06T14:49:00;3.77;;;1.70;;
7575;SDS011;3829;50.798;4.358;2022-07-06T14:51:27;6.90;;;1.70;;
7575;SDS011;3829;50.798;4.358;2022-07-06T14:53:52;5.93;;;1.70;;
7575;SDS011;3829;50.798;4.358;2022-07-06T14:56:18;4.90;;;1.70;;
7575;SDS011;3829;50.798;4.358;2022-07-06T14:58:44;6.33;;;1.67;;
7575;SDS011;3829;50.798;4.358;2022-07-06T15:01:09;3.80;;;1.60;;
7575;SDS011;3829;50.798;4.358;2022-07-06T15:03:35;9.50;;;2.30;;
7575;SDS011;3829;50.798;4.358;2022-07-06T15:06:01;4.90;;;2.00;;
7575;SDS011;3829;50.798;4.358;2022-07-06T15:08:27;2.93;;;1.70;;
7575;SDS011;3829;50.798;4.358;2022-07-06T15:10:52;3.30;;;1.60;;
7575;SDS011;3829;50.798;4.358;2022-07-06T15:13:18;3.63;;;1.70;;
7575;SDS011;3829;50.798;4.358;2022-07-06T15:15:44;7.77;;;1.73;;
7575;SDS011;3829;50.798;4.358;2022-07-06T15:18:10;5.93;;;1.77;;
7575;SDS011;3829;50.798;4.358;2022-07-06T15:20:35;2.53;;;1.60;;
7575;SDS011;3829;50.798;4.358;2022-07-06T15:23:01;4.27;;;1.80;;
7575;SDS011;3829;50.798;4.358;2022-07-06T15:25:27;4.03;;;1.97;;
7575;SDS011;3829;50.798;4.358;2022-07-06T15:27:52;3.10;;;1.93;;
7575;SDS011;3829;50.798;4.358;2022-07-06T15:30:18;3.70;;;1.67;;
7575;SDS011;3829;50.798;4.358;2022-07-06T15:32:44;6.57;;;1.90;;